Time;durP1;ratioP1;P1;durP2;ratioP2;P2;SDS_P1;SDS_P2;PMS_P1;PMS_P2;Temp;Humidity;BMP_temperature;BMP_pressure;BME280_temperature;BME280_humidity;BME280_pressure;Samples;Min_cycle;Max_cycle;Signal;HPM_P1;HPM_P2
2023/09/08 00:01:00;;;;;;;16.77;8.07;;;14.00;99.90;;;;;;5087305;28;20051;-71
2023/09/08 00:03:25;;;;;;;24.52;8.00;;;14.00;99.90;;;;;;5103248;28;20024;-71
2023/09/08 00:05:51;;;;;;;14.88;8.20;;;13.90;99.90;;;;;;5081994;28;20067;-71
2023/09/08 00:08:17;;;;;;;14.45;7.97;;;13.80;99.90;;;;;;5089593;28;20036;-71
2023/09/08 00:10:43;;;;;;;14.18;7.97;;;13.80;99.90;;;;;;5094200;28;20035;-71
2023/09/08 00:13:08;;;;;;;15.00;8.13;;;13.80;99.90;;;;;;5088390;28;20039;-72
2023/09/08 00:15:35;;;;;;;14.68;7.90;;;13.80;99.90;;;;;;5087472;28;20465;-71
2023/09/08 00:18:01;;;;;;;15.80;7.75;;;13.70;99.90;;;;;;5084862;28;20623;-71
2023/09/08 00:20:26;;;;;;;16.90;8.25;;;13.70;99.90;;;;;;5091896;28;20048;-71
2023/09/08 00:22:52;;;;;;;14.20;7.55;;;13.70;99.90;;;;;;5096766;28;20036;-71
2023/09/08 00:25:17;;;;;;;14.15;7.35;;;13.70;99.90;;;;;;5088372;28;20032;-71
2023/09/08 00:27:43;;;;;;;14.65;7.75;;;13.70;99.90;;;;;;5080884;28;20036;-72
2023/09/08 00:30:09;;;;;;;15.55;8.23;;;13.70;99.90;;;;;;5084044;28;20036;-71
2023/09/08 00:32:35;;;;;;;16.58;8.48;;;13.60;99.90;;;;;;5085774;28;20110;-71
2023/09/08 00:35:01;;;;;;;18.02;8.48;;;13.60;99.90;;;;;;5085692;28;20476;-71
2023/09/08 00:37:26;;;;;;;17.90;8.70;;;13.60;99.90;;;;;;5088056;28;20111;-71
2023/09/08 00:39:52;;;;;;;15.57;8.15;;;13.60;99.90;;;;;;5089990;28;20040;-71
2023/09/08 00:42:17;;;;;;;19.35;8.82;;;13.60;99.90;;;;;;5089312;28;20039;-71
2023/09/08 00:44:43;;;;;;;14.20;8.25;;;13.60;99.90;;;;;;5087663;28;20064;-72
2023/09/08 00:47:08;;;;;;;16.77;8.45;;;13.60;99.90;;;;;;5082766;28;20472;-71
2023/09/08 00:49:34;;;;;;;16.70;8.75;;;13.60;99.90;;;;;;5087328;28;20028;-71
2023/09/08 00:52:00;;;;;;;17.48;8.38;;;13.60;99.90;;;;;;5095067;28;20028;-71
2023/09/08 00:54:25;;;;;;;14.75;8.50;;;13.60;99.90;;;;;;5095954;28;20464;-71
2023/09/08 00:56:58;;;;;;;14.10;7.20;;;13.60;99.90;;;;;;5092887;28;20047;-71
2023/09/08 00:59:24;;;;;;;16.02;8.02;;;13.60;99.90;;;;;;5080433;28;20032;-70
2023/09/08 01:01:50;;;;;;;13.77;8.27;;;13.50;99.90;;;;;;5084502;28;20078;-71
2023/09/08 01:04:16;;;;;;;17.33;8.27;;;13.50;99.90;;;;;;5089475;28;20110;-71
2023/09/08 01:06:42;;;;;;;16.58;9.35;;;13.50;99.90;;;;;;5086457;28;20151;-70
2023/09/08 01:09:09;;;;;;;16.10;8.00;;;13.40;99.90;;;;;;5084503;28;20032;-70
2023/09/08 01:11:35;;;;;;;16.38;8.80;;;13.40;99.90;;;;;;5070583;28;20701;-70
2023/09/08 01:14:00;;;;;;;16.20;8.07;;;13.40;99.90;;;;;;5084844;28;20036;-70
2023/09/08 01:16:26;;;;;;;19.10;7.70;;;13.40;99.90;;;;;;5084487;28;20036;-71
2023/09/08 01:18:52;;;;;;;12.65;7.25;;;13.30;99.90;;;;;;5088684;28;20029;-70
2023/09/08 01:21:56;;;;;;;14.00;7.13;;;13.30;99.90;;;;;;5087180;28;20032;-71
2023/09/08 01:24:48;;;;;;;15.77;8.15;;;13.30;99.90;;;;;;5079334;28;20040;-72
2023/09/08 01:27:16;;;;;;;13.50;7.30;;;13.30;99.90;;;;;;5075697;28;20028;-71
2023/09/08 01:29:43;;;;;;;12.98;7.40;;;13.20;99.90;;;;;;5089147;28;20020;-70
2023/09/08 01:32:10;;;;;;;13.15;7.20;;;13.20;99.90;;;;;;5089564;28;20031;-71
2023/09/08 01:34:39;;;;;;;16.00;7.68;;;13.20;99.90;;;;;;5089711;28;20059;-71
2023/09/08 01:37:06;;;;;;;14.82;7.32;;;13.10;99.90;;;;;;5089506;28;20213;-71
2023/09/08 01:39:31;;;;;;;14.90;7.20;;;13.10;99.90;;;;;;5091424;28;20027;-71
2023/09/08 01:41:57;;;;;;;12.07;6.80;;;13.10;99.90;;;;;;5090621;28;20400;-71
2023/09/08 01:44:23;;;;;;;14.32;6.78;;;13.00;99.90;;;;;;5071354;28;20028;-71
2023/09/08 01:46:51;;;;;;;13.80;7.10;;;13.00;99.90;;;;;;5094659;28;20032;-71
2023/09/08 01:49:16;;;;;;;12.38;7.30;;;13.00;99.90;;;;;;5080327;28;20059;-71
2023/09/08 01:51:42;;;;;;;13.95;7.28;;;12.90;99.90;;;;;;5095015;28;20097;-71
2023/09/08 01:54:08;;;;;;;16.00;7.53;;;13.00;99.90;;;;;;5086592;28;20040;-71
2023/09/08 01:56:33;;;;;;;15.10;7.97;;;12.90;99.90;;;;;;5082299;28;20094;-71
2023/09/08 01:58:59;;;;;;;14.55;8.90;;;12.90;99.90;;;;;;5081733;28;20032;-71
2023/09/08 02:01:25;;;;;;;16.73;8.45;;;12.90;99.90;;;;;;5090463;28;20020;-71
2023/09/08 02:03:51;;;;;;;15.55;8.93;;;12.90;99.90;;;;;;5085714;28;20479;-71
2023/09/08 02:06:16;;;;;;;16.42;8.35;;;12.90;99.90;;;;;;5088121;28;20085;-71
2023/09/08 02:08:42;;;;;;;16.70;8.23;;;12.90;99.90;;;;;;5070394;28;20035;-71
2023/09/08 02:11:07;;;;;;;14.38;8.40;;;13.00;99.90;;;;;;5087559;28;20027;-71
2023/09/08 02:13:33;;;;;;;13.98;7.55;;;13.00;99.90;;;;;;5081749;28;20055;-71
2023/09/08 02:15:59;;;;;;;15.13;8.65;;;12.90;99.90;;;;;;5085681;28;20047;-71
2023/09/08 02:18:26;;;;;;;18.42;8.48;;;12.90;99.90;;;;;;5086033;28;20035;-71
2023/09/08 02:20:51;;;;;;;14.30;7.82;;;13.00;99.90;;;;;;5087414;28;20431;-71
2023/09/08 02:23:17;;;;;;;15.73;7.13;;;12.90;99.90;;;;;;5088074;28;20031;-71
2023/09/08 02:25:42;;;;;;;14.38;7.22;;;13.00;99.90;;;;;;5089566;28;20024;-71
2023/09/08 02:28:08;;;;;;;16.60;7.93;;;12.90;99.90;;;;;;5089304;28;20066;-71
2023/09/08 02:30:34;;;;;;;14.43;7.28;;;12.80;99.90;;;;;;5086607;28;20123;-71
2023/09/08 02:32:59;;;;;;;15.77;7.43;;;12.70;99.90;;;;;;5087687;28;20103;-71
2023/09/08 02:35:25;;;;;;;14.00;7.78;;;12.70;99.90;;;;;;5091767;28;20215;-71
2023/09/08 02:37:51;;;;;;;16.17;9.20;;;12.60;99.90;;;;;;5069842;28;20476;-72
2023/09/08 02:40:16;;;;;;;17.88;8.27;;;12.60;99.90;;;;;;5089886;28;20043;-71
2023/09/08 02:42:42;;;;;;;17.77;8.27;;;12.60;99.90;;;;;;5087375;28;20123;-71
2023/09/08 02:45:08;;;;;;;17.35;8.10;;;12.50;99.90;;;;;;5087639;28;20020;-71
2023/09/08 02:47:33;;;;;;;16.10;8.20;;;12.60;99.90;;;;;;5087735;28;20389;-71
2023/09/08 02:49:59;;;;;;;19.25;8.75;;;12.50;99.90;;;;;;5094083;28;20062;-71
2023/09/08 02:52:24;;;;;;;15.95;8.55;;;12.50;99.90;;;;;;5086183;28;20020;-72
2023/09/08 02:54:50;;;;;;;16.27;8.45;;;12.50;99.90;;;;;;5068871;28;20028;-72
2023/09/08 02:57:16;;;;;;;15.80;8.45;;;12.50;99.90;;;;;;5085612;28;20032;-71
2023/09/08 02:59:41;;;;;;;16.60;8.30;;;12.50;99.90;;;;;;5089324;28;20480;-71
2023/09/08 03:02:07;;;;;;;16.13;8.30;;;12.50;99.90;;;;;;5084338;28;20980;-71
2023/09/08 03:04:32;;;;;;;16.77;8.85;;;12.40;99.90;;;;;;5088074;28;20032;-71
2023/09/08 03:06:58;;;;;;;15.35;8.73;;;12.40;99.90;;;;;;5086705;28;20032;-72
2023/09/08 03:09:24;;;;;;;15.60;8.05;;;12.30;99.90;;;;;;5083191;28;20445;-71
2023/09/08 03:11:49;;;;;;;15.63;8.85;;;12.20;99.90;;;;;;5082417;28;20035;-72
2023/09/08 03:14:15;;;;;;;15.20;8.15;;;12.20;99.90;;;;;;5082011;28;20059;-72
2023/09/08 03:16:40;;;;;;;16.90;8.70;;;12.20;99.90;;;;;;5082866;28;20472;-71
2023/09/08 03:19:06;;;;;;;13.80;7.72;;;12.20;99.90;;;;;;5084023;28;20032;-71
2023/09/08 03:21:32;;;;;;;14.55;7.90;;;12.10;99.90;;;;;;5087346;28;20514;-71
2023/09/08 03:23:57;;;;;;;17.45;9.02;;;12.10;99.90;;;;;;5079416;28;20032;-70
2023/09/08 03:26:23;;;;;;;15.43;8.23;;;12.10;99.90;;;;;;5086296;28;20035;-71
2023/09/08 03:28:48;;;;;;;14.43;8.05;;;12.00;99.90;;;;;;5082180;28;20461;-71
2023/09/08 03:31:14;;;;;;;19.05;8.88;;;12.00;99.90;;;;;;5085817;28;20071;-70
2023/09/08 03:33:40;;;;;;;18.50;9.25;;;12.00;99.90;;;;;;5089205;28;20028;-71
2023/09/08 03:36:05;;;;;;;16.70;8.65;;;12.00;99.90;;;;;;5081824;28;20430;-70
2023/09/08 03:38:31;;;;;;;19.63;8.57;;;12.00;99.90;;;;;;5079730;28;20028;-72
2023/09/08 03:40:56;;;;;;;18.73;9.35;;;12.10;99.90;;;;;;5077913;28;20078;-70
2023/09/08 03:43:22;;;;;;;20.00;9.20;;;12.00;99.90;;;;;;5088060;28;20028;-71
2023/09/08 03:45:48;;;;;;;16.83;7.72;;;12.10;99.90;;;;;;5083420;28;20449;-71
2023/09/08 03:48:13;;;;;;;15.95;8.40;;;12.10;99.90;;;;;;5087495;28;20809;-71
2023/09/08 03:50:39;;;;;;;16.77;9.57;;;12.00;99.90;;;;;;5086180;28;20054;-70
2023/09/08 03:53:05;;;;;;;16.80;8.98;;;12.00;99.90;;;;;;5086770;28;20407;-70
2023/09/08 03:55:30;;;;;;;18.60;9.70;;;12.10;99.90;;;;;;5083704;28;20028;-70
2023/09/08 03:57:57;;;;;;;16.50;8.55;;;12.10;99.90;;;;;;5079724;28;20462;-70
2023/09/08 04:00:22;;;;;;;19.48;9.77;;;12.10;99.90;;;;;;5070265;28;20035;-67
2023/09/08 04:02:51;;;;;;;20.40;9.40;;;12.10;99.90;;;;;;5087674;28;20035;-67
2023/09/08 04:05:17;;;;;;;15.73;8.85;;;12.00;99.90;;;;;;5086852;28;20028;-69
2023/09/08 04:07:44;;;;;;;18.33;9.18;;;12.00;99.90;;;;;;5088414;28;20028;-71
2023/09/08 04:10:10;;;;;;;18.17;8.57;;;12.10;99.90;;;;;;5082275;28;20028;-70
2023/09/08 04:12:35;;;;;;;15.80;8.85;;;12.00;99.90;;;;;;5081284;28;20043;-69
2023/09/08 04:15:01;;;;;;;19.85;9.80;;;12.10;99.90;;;;;;5085718;28;20408;-69
2023/09/08 04:17:27;;;;;;;18.67;8.98;;;12.00;99.90;;;;;;5086348;28;20115;-69
2023/09/08 04:19:52;;;;;;;15.25;8.27;;;12.00;99.90;;;;;;5086496;28;20056;-70
2023/09/08 04:22:18;;;;;;;17.92;8.50;;;11.90;99.90;;;;;;5067169;28;20036;-70
2023/09/08 04:24:43;;;;;;;16.90;8.68;;;11.90;99.90;;;;;;5078655;28;20388;-70
2023/09/08 04:27:10;;;;;;;16.77;9.27;;;11.80;99.90;;;;;;5086517;28;20050;-70
2023/09/08 04:29:36;;;;;;;18.02;9.57;;;11.90;99.90;;;;;;5078346;28;20560;-70
2023/09/08 04:32:08;;;;;;;17.83;9.52;;;11.80;99.90;;;;;;5084225;28;20032;-70
2023/09/08 04:34:40;;;;;;;16.90;9.45;;;11.90;99.90;;;;;;5084265;28;20031;-69
2023/09/08 04:37:06;;;;;;;15.35;9.13;;;11.90;99.90;;;;;;5086940;28;20032;-69
2023/09/08 04:39:33;;;;;;;17.00;9.48;;;11.90;99.90;;;;;;5088695;28;20448;-69
2023/09/08 04:41:59;;;;;;;23.67;10.30;;;12.00;99.90;;;;;;5084421;28;20032;-69
2023/09/08 04:44:25;;;;;;;20.10;10.05;;;12.00;99.90;;;;;;5087884;28;20120;-70
2023/09/08 04:46:54;;;;;;;21.42;10.32;;;12.00;99.90;;;;;;5083038;28;20036;-70
2023/09/08 04:49:20;;;;;;;19.45;10.57;;;12.10;99.90;;;;;;5078395;28;20115;-68
2023/09/08 04:51:45;;;;;;;14.85;8.82;;;12.10;99.90;;;;;;5085163;28;20560;-67
2023/09/08 04:54:11;;;;;;;15.18;8.80;;;12.10;99.90;;;;;;5085333;28;20031;-69
2023/09/08 04:56:40;;;;;;;16.83;8.95;;;12.00;99.90;;;;;;5094768;28;20673;-70
2023/09/08 04:59:05;;;;;;;15.73;8.90;;;11.80;99.90;;;;;;5088250;28;20374;-70
2023/09/08 05:01:32;;;;;;;14.43;8.18;;;11.80;99.90;;;;;;5087732;28;20151;-68
2023/09/08 05:03:59;;;;;;;18.10;8.70;;;11.70;99.90;;;;;;5088385;28;20032;-69
2023/09/08 05:06:25;;;;;;;18.80;8.95;;;11.70;99.90;;;;;;5103974;28;20024;-68
2023/09/08 05:08:51;;;;;;;14.98;8.10;;;11.60;99.90;;;;;;5088919;28;20106;-68
2023/09/08 05:11:17;;;;;;;17.90;8.70;;;11.60;99.90;;;;;;5086340;28;20062;-69
2023/09/08 05:13:42;;;;;;;16.13;8.77;;;11.70;99.90;;;;;;5082351;28;20236;-68
2023/09/08 05:16:11;;;;;;;17.50;9.18;;;11.70;99.90;;;;;;5086809;28;20559;-69
2023/09/08 05:18:40;;;;;;;18.70;8.40;;;11.70;99.90;;;;;;5085755;28;20078;-69
2023/09/08 05:21:09;;;;;;;18.60;8.65;;;11.60;99.90;;;;;;5079189;28;20127;-69
2023/09/08 05:23:35;;;;;;;16.10;9.40;;;11.50;99.90;;;;;;5071763;28;20082;-71
2023/09/08 05:26:01;;;;;;;18.05;9.52;;;11.50;99.90;;;;;;5088320;28;20357;-72
2023/09/08 05:28:26;;;;;;;17.48;9.07;;;11.60;99.90;;;;;;5086206;28;20028;-71
2023/09/08 05:30:53;;;;;;;20.48;10.20;;;11.70;99.90;;;;;;5086855;28;20480;-72
2023/09/08 05:33:19;;;;;;;17.40;9.15;;;11.90;99.90;;;;;;5087011;28;20096;-70
2023/09/08 05:35:45;;;;;;;21.13;9.63;;;12.00;99.90;;;;;;5078628;28;20111;-71
2023/09/08 05:38:11;;;;;;;21.20;9.25;;;12.10;99.90;;;;;;5088548;28;20028;-70
2023/09/08 05:40:37;;;;;;;16.30;9.63;;;12.30;99.90;;;;;;5108253;28;20479;-71
2023/09/08 05:43:03;;;;;;;18.40;10.55;;;12.50;99.90;;;;;;5089599;28;20032;-70
2023/09/08 05:45:31;;;;;;;18.30;9.68;;;12.70;99.90;;;;;;5090978;28;20058;-68
2023/09/08 05:47:57;;;;;;;17.25;7.68;;;12.80;99.90;;;;;;5090755;28;20436;-72
2023/09/08 05:50:22;;;;;;;18.45;8.00;;;12.90;99.90;;;;;;5090590;28;20048;-67
2023/09/08 05:52:48;;;;;;;13.52;8.48;;;12.60;99.90;;;;;;5091467;28;20028;-68
2023/09/08 05:55:13;;;;;;;16.15;8.75;;;12.60;99.90;;;;;;5089149;28;20028;-68
2023/09/08 05:57:40;;;;;;;17.67;9.57;;;12.70;99.90;;;;;;5091580;28;20067;-67
2023/09/08 06:00:07;;;;;;;18.27;9.70;;;12.80;99.90;;;;;;5089981;28;20040;-68
2023/09/08 06:02:32;;;;;;;13.70;7.70;;;13.10;99.90;;;;;;5090294;28;20116;-69
2023/09/08 06:04:58;;;;;;;16.60;8.95;;;13.20;99.90;;;;;;5088485;28;20135;-70
2023/09/08 06:07:24;;;;;;;19.88;10.18;;;13.30;99.90;;;;;;5090999;28;20381;-69
2023/09/08 06:09:49;;;;;;;18.17;8.02;;;13.50;99.90;;;;;;5090113;28;20032;-69
2023/09/08 06:12:15;;;;;;;15.07;8.45;;;13.50;99.90;;;;;;5089903;28;20445;-70
2023/09/08 06:14:40;;;;;;;13.98;8.05;;;13.50;99.90;;;;;;5091031;28;20032;-69
2023/09/08 06:17:06;;;;;;;15.85;8.25;;;13.60;99.90;;;;;;5088736;28;20111;-71
2023/09/08 06:19:32;;;;;;;18.13;10.38;;;13.80;99.90;;;;;;5089164;28;20020;-72
2023/09/08 06:21:57;;;;;;;15.25;8.90;;;13.90;99.90;;;;;;5089010;28;20062;-70
2023/09/08 06:24:24;;;;;;;17.25;9.30;;;14.20;99.90;;;;;;5083618;28;20032;-71
2023/09/08 06:26:50;;;;;;;18.83;8.68;;;14.40;99.90;;;;;;5085868;28;20106;-71
2023/09/08 06:29:15;;;;;;;15.18;9.10;;;14.50;99.90;;;;;;5087016;28;20937;-69
2023/09/08 06:31:41;;;;;;;15.77;9.00;;;14.50;99.90;;;;;;5087064;28;20024;-70
2023/09/08 06:34:07;;;;;;;17.20;9.13;;;14.50;99.90;;;;;;5088505;28;20530;-68
2023/09/08 06:36:32;;;;;;;18.10;9.40;;;14.60;99.90;;;;;;5088854;28;20395;-70
2023/09/08 06:38:58;;;;;;;16.25;9.50;;;14.60;99.90;;;;;;5076803;28;20078;-70
2023/09/08 06:41:23;;;;;;;15.75;9.35;;;14.60;99.90;;;;;;5086460;28;20039;-68
2023/09/08 06:43:49;;;;;;;18.15;9.30;;;14.70;99.90;;;;;;5087454;28;20111;-69
2023/09/08 06:46:15;;;;;;;14.57;8.73;;;14.80;99.90;;;;;;5088570;28;20028;-69
2023/09/08 06:48:41;;;;;;;20.40;9.90;;;14.90;99.90;;;;;;5089496;28;20044;-71
2023/09/08 06:51:06;;;;;;;16.30;9.93;;;15.10;99.90;;;;;;5089731;28;20526;-70
2023/09/08 06:53:32;;;;;;;19.77;10.30;;;15.30;99.90;;;;;;5090028;28;20058;-68
2023/09/08 06:55:58;;;;;;;17.42;9.50;;;15.60;99.90;;;;;;5088082;28;20036;-67
2023/09/08 06:58:23;;;;;;;16.45;9.27;;;15.80;99.90;;;;;;5089063;28;20028;-69
2023/09/08 07:00:54;;;;;;;19.05;9.73;;;16.00;99.90;;;;;;5089992;28;20552;-70
2023/09/08 07:03:22;;;;;;;18.52;9.75;;;16.30;99.90;;;;;;5089705;28;20044;-68
2023/09/08 07:05:49;;;;;;;19.80;9.90;;;16.50;99.90;;;;;;5096467;28;20040;-71
2023/09/08 07:08:15;;;;;;;20.10;9.85;;;16.50;99.90;;;;;;5094098;28;20032;-68
2023/09/08 07:10:40;;;;;;;17.90;9.48;;;16.50;99.90;;;;;;5089378;28;20376;-67
2023/09/08 07:13:06;;;;;;;20.67;9.50;;;16.60;99.90;;;;;;5088169;28;20400;-68
2023/09/08 07:15:32;;;;;;;16.50;9.90;;;16.70;99.90;;;;;;5088776;28;20101;-68
2023/09/08 07:17:57;;;;;;;15.27;9.70;;;16.90;99.90;;;;;;5088361;28;20024;-68
2023/09/08 07:20:23;;;;;;;17.65;9.88;;;17.10;99.90;;;;;;5089030;28;20036;-68
2023/09/08 07:22:48;;;;;;;18.02;9.57;;;17.30;99.90;;;;;;5089959;28;20036;-71
2023/09/08 07:25:14;;;;;;;15.13;8.90;;;17.50;99.90;;;;;;5088234;28;21301;-71
2023/09/08 07:27:40;;;;;;;14.10;8.48;;;17.90;99.90;;;;;;5087092;28;20460;-70
2023/09/08 07:30:06;;;;;;;14.73;9.10;;;18.20;99.90;;;;;;5088162;28;20031;-71
2023/09/08 07:32:31;;;;;;;14.70;9.20;;;18.40;99.90;;;;;;5088624;28;20484;-71
2023/09/08 07:34:57;;;;;;;15.07;8.57;;;18.60;99.90;;;;;;5087668;28;20063;-70
2023/09/08 07:37:24;;;;;;;15.27;9.02;;;18.70;99.90;;;;;;5087264;28;20162;-67
2023/09/08 07:39:50;;;;;;;20.20;8.98;;;18.80;99.90;;;;;;5085158;28;20085;-69
2023/09/08 07:42:16;;;;;;;15.20;8.43;;;19.00;99.90;;;;;;5088675;28;20032;-70
2023/09/08 07:44:42;;;;;;;18.90;8.98;;;19.20;99.90;;;;;;5085764;28;20649;-70
2023/09/08 07:47:08;;;;;;;15.18;8.48;;;19.40;99.90;;;;;;5077190;28;20060;-71
2023/09/08 07:49:34;;;;;;;14.25;8.60;;;19.60;99.90;;;;;;5069087;28;20037;-72
2023/09/08 07:52:00;;;;;;;15.45;8.23;;;19.80;99.90;;;;;;5086229;28;20028;-70
2023/09/08 07:54:26;;;;;;;15.00;8.25;;;19.90;99.90;;;;;;5085737;28;20020;-70
2023/09/08 07:56:51;;;;;;;15.32;8.45;;;20.10;99.90;;;;;;5089226;28;20031;-70
2023/09/08 07:59:17;;;;;;;12.68;7.63;;;20.20;99.90;;;;;;5088480;28;20020;-71
2023/09/08 08:01:43;;;;;;;12.75;8.05;;;20.40;99.90;;;;;;5087999;28;20039;-71
2023/09/08 08:04:08;;;;;;;14.35;8.18;;;20.50;99.90;;;;;;5087332;28;20102;-71
2023/09/08 08:06:34;;;;;;;18.75;8.13;;;20.60;99.90;;;;;;5086302;28;20150;-74
2023/09/08 08:09:00;;;;;;;11.95;8.10;;;20.70;99.90;;;;;;5086301;28;20038;-72
2023/09/08 08:11:26;;;;;;;13.77;8.15;;;20.80;99.90;;;;;;5088165;28;20039;-72
2023/09/08 08:13:52;;;;;;;12.85;7.82;;;20.80;99.90;;;;;;5088390;28;20024;-71
2023/09/08 08:16:18;;;;;;;12.18;8.38;;;20.90;99.90;;;;;;5085115;28;20078;-73
2023/09/08 08:18:44;;;;;;;19.08;8.10;;;21.00;99.90;;;;;;5085786;28;20126;-72
2023/09/08 08:21:09;;;;;;;14.98;7.75;;;21.20;99.90;;;;;;5083479;28;20099;-72
2023/09/08 08:23:36;;;;;;;13.00;8.13;;;21.20;99.90;;;;;;5084638;28;20024;-72
2023/09/08 08:26:02;;;;;;;13.52;8.15;;;21.30;99.90;;;;;;5082861;28;20031;-73
2023/09/08 08:28:28;;;;;;;19.55;8.68;;;21.40;99.90;;;;;;5088059;28;20038;-71
2023/09/08 08:30:55;;;;;;;13.55;7.30;;;21.50;99.90;;;;;;5088889;28;20036;-71
2023/09/08 08:33:22;;;;;;;13.38;8.65;;;21.60;99.90;;;;;;5086727;28;20024;-71
2023/09/08 08:35:52;;;;;;;15.82;8.02;;;21.70;99.90;;;;;;5086833;28;20388;-71
2023/09/08 08:38:18;;;;;;;18.02;9.30;;;21.90;99.90;;;;;;5087975;28;20028;-71
2023/09/08 08:40:44;;;;;;;16.52;8.32;;;21.90;99.90;;;;;;5086030;28;20058;-71
2023/09/08 08:43:10;;;;;;;12.93;7.30;;;22.00;99.90;;;;;;5086291;28;20035;-73
2023/09/08 08:45:37;;;;;;;18.33;8.38;;;22.10;99.90;;;;;;5086587;28;20704;-71
2023/09/08 08:48:04;;;;;;;14.43;7.90;;;22.20;99.90;;;;;;5086997;28;20048;-70
2023/09/08 08:50:32;;;;;;;11.68;7.50;;;22.30;99.90;;;;;;5085643;28;20032;-72
2023/09/08 08:52:58;;;;;;;12.32;7.47;;;22.40;99.90;;;;;;5086388;28;20059;-71
2023/09/08 08:55:26;;;;;;;17.65;7.85;;;22.50;99.90;;;;;;5087583;28;20028;-72
2023/09/08 08:57:52;;;;;;;13.40;8.27;;;22.50;99.90;;;;;;5087733;28;20039;-71
2023/09/08 09:00:18;;;;;;;16.85;7.57;;;22.60;99.90;;;;;;5087193;28;20039;-72
2023/09/08 09:02:48;;;;;;;13.73;7.45;;;22.70;99.90;;;;;;5068427;28;20044;-72
2023/09/08 09:05:14;;;;;;;12.05;8.18;;;22.90;99.90;;;;;;5067520;28;20047;-72
2023/09/08 09:07:42;;;;;;;15.10;8.38;;;23.00;99.90;;;;;;5086608;28;20036;-71
2023/09/08 09:10:09;;;;;;;11.27;7.78;;;22.90;99.90;;;;;;5088389;28;20138;-71
2023/09/08 09:12:38;;;;;;;16.85;8.70;;;22.90;99.90;;;;;;5095385;28;20133;-71
2023/09/08 09:15:04;;;;;;;13.48;7.95;;;23.00;99.90;;;;;;5087972;28;20024;-70
2023/09/08 09:17:32;;;;;;;12.27;7.57;;;23.20;99.90;;;;;;5086307;28;20059;-71
2023/09/08 09:20:20;;;;;;;14.50;8.50;;;23.40;99.90;;;;;;5086216;28;20040;-71
2023/09/08 09:22:46;;;;;;;10.93;7.70;;;23.40;99.90;;;;;;5088338;28;20126;-70
2023/09/08 09:25:32;;;;;;;19.85;7.97;;;23.50;99.90;;;;;;5087768;28;20103;-71
2023/09/08 09:28:00;;;;;;;14.52;8.02;;;23.70;99.90;;;;;;5082687;28;20044;-73
2023/09/08 09:30:26;;;;;;;11.95;7.90;;;23.80;99.90;;;;;;5088059;28;20047;-71
2023/09/08 09:33:02;;;;;;;11.00;7.85;;;23.80;99.90;;;;;;5086514;28;20012;-70
2023/09/08 09:35:52;;;;;;;13.85;7.50;;;23.80;99.90;;;;;;5087249;28;20066;-70
2023/09/08 09:38:20;;;;;;;15.90;7.68;;;23.90;99.90;;;;;;5086803;28;20039;-72
2023/09/08 09:40:46;;;;;;;17.60;7.50;;;24.10;99.90;;;;;;5091327;28;20040;-71
2023/09/08 09:43:14;;;;;;;20.73;7.97;;;24.10;99.90;;;;;;5091582;28;20112;-73
2023/09/08 09:45:42;;;;;;;13.93;7.88;;;24.30;99.90;;;;;;5088694;28;20039;-72
2023/09/08 09:48:09;;;;;;;14.20;7.82;;;24.50;99.90;;;;;;5088329;28;20393;-71
2023/09/08 09:50:40;;;;;;;13.23;7.95;;;24.60;99.90;;;;;;5090871;28;20035;-71
2023/09/08 09:53:11;;;;;;;14.10;7.75;;;24.80;99.90;;;;;;5066672;28;20085;-73
2023/09/08 09:55:40;;;;;;;12.13;8.38;;;24.90;99.90;;;;;;5073492;28;20016;-71
2023/09/08 09:58:07;;;;;;;13.33;7.90;;;25.10;99.90;;;;;;5089552;28;20036;-71
2023/09/08 10:00:34;;;;;;;10.05;7.40;;;25.30;99.90;;;;;;5088620;28;20024;-72
2023/09/08 10:03:00;;;;;;;15.70;7.65;;;25.40;99.90;;;;;;5099215;28;20119;-71
2023/09/08 10:05:27;;;;;;;13.73;7.82;;;25.50;99.90;;;;;;5091138;28;20154;-70
2023/09/08 10:07:53;;;;;;;13.20;7.95;;;25.60;99.90;;;;;;5090275;28;20035;-71
2023/09/08 10:10:20;;;;;;;12.43;7.60;;;25.50;99.90;;;;;;5090503;28;20087;-71
2023/09/08 10:12:51;;;;;;;12.93;7.30;;;25.30;99.90;;;;;;5090564;28;20039;-72
2023/09/08 10:15:22;;;;;;;12.15;8.07;;;25.50;99.90;;;;;;5088612;28;20115;-72
2023/09/08 10:17:54;;;;;;;13.18;8.02;;;25.70;99.90;;;;;;5087520;28;20039;-71
2023/09/08 10:20:21;;;;;;;15.57;7.55;;;25.70;99.90;;;;;;5090737;28;20067;-71
2023/09/08 10:22:52;;;;;;;11.98;7.40;;;25.70;99.90;;;;;;5091785;28;20082;-71
2023/09/08 10:25:21;;;;;;;11.48;7.22;;;25.90;99.90;;;;;;5088053;28;20020;-71
2023/09/08 10:27:47;;;;;;;13.35;7.55;;;26.10;99.90;;;;;;5086988;28;20193;-71
2023/09/08 10:30:14;;;;;;;13.40;7.63;;;26.30;99.90;;;;;;5086735;28;20051;-73
2023/09/08 10:32:42;;;;;;;10.63;7.63;;;26.30;99.90;;;;;;5087045;28;20033;-72
2023/09/08 10:35:09;;;;;;;11.10;7.50;;;26.50;99.90;;;;;;5080705;28;20032;-72
2023/09/08 10:37:35;;;;;;;11.32;8.05;;;26.70;99.90;;;;;;5089292;28;20016;-72
2023/09/08 10:40:23;;;;;;;10.13;7.15;;;26.60;99.90;;;;;;5090837;28;20032;-71
2023/09/08 10:42:49;;;;;;;16.15;8.05;;;26.70;99.90;;;;;;5070550;28;20033;-71
2023/09/08 10:45:17;;;;;;;15.65;7.07;;;27.00;99.90;;;;;;5070255;28;20073;-73
2023/09/08 10:47:45;;;;;;;13.10;8.05;;;27.30;99.90;;;;;;5078568;28;20048;-73
2023/09/08 10:50:30;;;;;;;12.35;7.57;;;27.40;99.90;;;;;;5090668;28;20149;-71
2023/09/08 10:53:14;;;;;;;14.20;8.15;;;27.20;99.90;;;;;;5090867;28;20032;-72
2023/09/08 10:55:53;;;;;;;11.30;7.97;;;27.30;99.90;;;;;;5090234;28;20130;-71
2023/09/08 10:58:51;;;;;;;19.50;7.88;;;27.60;99.90;;;;;;5071777;28;20040;-72
2023/09/08 11:01:28;;;;;;;10.68;7.85;;;27.50;99.90;;;;;;5034051;28;20427;-73
2023/09/08 11:03:54;;;;;;;11.32;7.75;;;27.50;99.90;;;;;;5088541;28;20067;-71
2023/09/08 11:06:23;;;;;;;9.77;6.82;;;27.50;99.90;;;;;;5088528;28;20035;-71
2023/09/08 11:08:53;;;;;;;15.15;7.82;;;27.30;99.90;;;;;;5090207;28;20063;-71
2023/09/08 11:11:19;;;;;;;14.05;7.70;;;27.50;99.90;;;;;;5089702;28;20082;-73
2023/09/08 11:13:46;;;;;;;16.83;7.43;;;27.70;99.90;;;;;;5090335;28;20019;-71
2023/09/08 11:16:13;;;;;;;11.55;7.22;;;27.80;99.90;;;;;;5094433;28;20035;-72
2023/09/08 11:18:40;;;;;;;10.30;7.13;;;28.10;99.90;;;;;;5088924;28;20227;-70
2023/09/08 11:21:08;;;;;;;10.38;7.07;;;28.10;99.90;;;;;;5093362;28;20063;-72
2023/09/08 11:23:34;;;;;;;12.23;7.03;;;28.20;99.90;;;;;;5084687;28;20028;-72
2023/09/08 11:26:00;;;;;;;10.43;7.68;;;28.40;99.90;;;;;;5087750;28;20017;-72
2023/09/08 11:28:28;;;;;;;10.35;7.68;;;28.40;99.90;;;;;;5087406;28;20043;-72
2023/09/08 11:30:55;;;;;;;11.60;7.22;;;28.60;99.90;;;;;;5088607;28;20063;-72
2023/09/08 11:33:25;;;;;;;13.13;7.90;;;28.80;99.90;;;;;;5085733;28;20052;-72
2023/09/08 11:35:54;;;;;;;14.43;7.43;;;28.70;98.40;;;;;;5090207;28;20024;-72
2023/09/08 11:38:27;;;;;;;17.85;7.68;;;28.60;99.70;;;;;;5073100;28;20074;-73
2023/09/08 11:40:58;;;;;;;10.57;7.63;;;28.30;99.90;;;;;;5079330;28;20036;-71
2023/09/08 11:43:23;;;;;;;13.50;7.32;;;28.50;99.90;;;;;;5086748;28;20032;-71
2023/09/08 11:45:49;;;;;;;12.25;7.28;;;28.80;99.30;;;;;;5089012;28;20032;-71
2023/09/08 11:48:15;;;;;;;12.95;7.10;;;28.90;99.40;;;;;;5081691;28;20044;-72
2023/09/08 11:50:42;;;;;;;18.13;8.02;;;29.10;99.90;;;;;;5085326;28;20543;-72
2023/09/08 11:53:08;;;;;;;14.98;7.97;;;29.20;99.30;;;;;;5083197;28;20020;-72
2023/09/08 11:55:35;;;;;;;9.98;7.45;;;29.20;97.40;;;;;;5086323;28;20112;-71
2023/09/08 11:58:01;;;;;;;10.75;7.22;;;28.80;97.50;;;;;;5088138;28;20457;-71
2023/09/08 12:00:27;;;;;;;11.30;7.68;;;28.80;99.50;;;;;;5086402;28;20032;-72
2023/09/08 12:02:54;;;;;;;13.55;7.45;;;29.00;98.20;;;;;;5085595;28;20044;-73
2023/09/08 12:05:27;;;;;;;12.10;6.97;;;29.20;98.60;;;;;;5088838;28;20032;-72
2023/09/08 12:07:54;;;;;;;11.00;7.13;;;29.20;97.10;;;;;;5086333;28;20115;-71
2023/09/08 12:10:21;;;;;;;10.65;7.35;;;29.10;97.50;;;;;;5086702;28;20016;-72
2023/09/08 12:12:49;;;;;;;9.63;7.30;;;29.20;97.60;;;;;;5077245;28;20075;-71
2023/09/08 12:15:38;;;;;;;15.20;7.10;;;29.50;97.60;;;;;;5083030;28;20460;-72
2023/09/08 12:18:09;;;;;;;10.07;6.47;;;29.60;96.30;;;;;;5081074;28;20071;-71
2023/09/08 12:20:36;;;;;;;14.32;7.57;;;29.60;95.80;;;;;;5088225;28;20486;-71
2023/09/08 12:23:05;;;;;;;15.13;7.35;;;29.70;98.10;;;;;;5081662;28;20063;-71
2023/09/08 12:25:34;;;;;;;12.07;7.60;;;29.90;98.20;;;;;;5085590;28;20028;-71
2023/09/08 12:28:00;;;;;;;12.40;7.00;;;30.10;97.70;;;;;;5086502;28;20044;-72
2023/09/08 12:30:32;;;;;;;12.05;7.03;;;30.20;95.80;;;;;;5086327;28;20047;-71
2023/09/08 12:33:00;;;;;;;9.93;7.18;;;30.20;97.60;;;;;;5083960;28;20097;-71
2023/09/08 12:35:26;;;;;;;21.67;7.53;;;30.00;94.90;;;;;;5086843;28;20036;-71